Time;durP1;ratioP1;P1;durP2;ratioP2;P2;SDS_P1;SDS_P2;PMS_P1;PMS_P2;Temp;Humidity;BMP_temperature;BMP_pressure;BME280_temperature;BME280_humidity;BME280_pressure;Samples;Min_cycle;Max_cycle;Signal;HPM_P1;HPM_P2
2022/07/14 00:01:54;;;;;;;3.88;3.50;;;;;;;16.20;100.00;100964.41;4915738;29;20127;-79
2022/07/14 00:04:21;;;;;;;4.28;3.85;;;;;;;16.16;100.00;100966.31;4923328;29;20072;-79
2022/07/14 00:06:47;;;;;;;3.42;3.13;;;;;;;16.10;100.00;100968.34;4943508;28;20067;-78
2022/07/14 00:09:14;;;;;;;4.68;3.53;;;;;;;16.04;100.00;100961.44;4922680;29;20067;-79
2022/07/14 00:11:41;;;;;;;4.53;3.30;;;;;;;15.99;100.00;100968.78;4937966;29;20481;-79
2022/07/14 00:14:07;;;;;;;4.65;3.22;;;;;;;15.90;100.00;100967.31;4958016;29;20039;-79
2022/07/14 00:16:34;;;;;;;4.75;3.67;;;;;;;15.82;100.00;100966.75;4969635;28;20056;-78
2022/07/14 00:19:01;;;;;;;3.58;3.28;;;;;;;15.81;100.00;100970.34;4959341;29;20059;-79
2022/07/14 00:21:28;;;;;;;3.92;3.25;;;;;;;15.76;100.00;100973.16;4922875;29;20065;-79
2022/07/14 00:23:55;;;;;;;5.97;3.80;;;;;;;15.75;100.00;100982.06;4954188;28;20126;-79
2022/07/14 00:26:21;;;;;;;5.63;3.85;;;;;;;15.67;100.00;100977.94;4917198;29;20036;-78
2022/07/14 00:28:48;;;;;;;4.03;3.17;;;;;;;15.60;100.00;100987.06;4931848;29;20079;-79
2022/07/14 00:31:15;;;;;;;4.60;3.85;;;;;;;15.60;100.00;100969.28;4916706;29;20069;-79
2022/07/14 00:33:42;;;;;;;5.20;3.10;;;;;;;15.53;100.00;100981.06;4942363;28;20063;-79
2022/07/14 00:36:09;;;;;;;5.18;3.45;;;;;;;15.58;100.00;100978.25;4930628;29;20046;-79
2022/07/14 00:38:36;;;;;;;5.38;3.45;;;;;;;15.57;100.00;100974.72;4919721;29;20047;-79
2022/07/14 00:41:02;;;;;;;6.40;3.53;;;;;;;15.63;100.00;100979.84;4930720;29;20040;-79
2022/07/14 00:43:30;;;;;;;4.38;3.47;;;;;;;15.61;100.00;100976.38;4915623;29;20039;-79
2022/07/14 00:45:57;;;;;;;6.25;3.25;;;;;;;15.51;100.00;100984.72;4910989;29;20048;-79
2022/07/14 00:48:25;;;;;;;3.90;3.50;;;;;;;15.45;100.00;100984.00;4913450;29;20114;-79
2022/07/14 00:50:52;;;;;;;8.15;3.60;;;;;;;15.45;100.00;100986.66;4899209;29;20044;-79
2022/07/14 00:53:19;;;;;;;5.82;3.63;;;;;;;15.43;100.00;100987.66;4901612;29;20051;-79
2022/07/14 00:55:46;;;;;;;3.78;3.20;;;;;;;15.45;100.00;100993.78;4898145;29;20044;-79
2022/07/14 00:58:13;;;;;;;5.82;3.20;;;;;;;15.53;100.00;100990.84;4917266;29;20126;-79
2022/07/14 01:00:40;;;;;;;5.72;3.40;;;;;;;15.53;100.00;100997.03;4933856;29;20035;-78
2022/07/14 01:03:06;;;;;;;4.68;2.67;;;;;;;15.44;100.00;100992.03;4907957;29;20066;-78
2022/07/14 01:05:34;;;;;;;4.70;2.78;;;;;;;15.44;100.00;100997.38;4931101;29;20099;-78
2022/07/14 01:08:00;;;;;;;4.50;2.65;;;;;;;15.36;100.00;100994.09;4903731;29;20054;-77
2022/07/14 01:10:27;;;;;;;5.85;2.75;;;;;;;15.33;100.00;100999.56;4928381;29;20048;-77
2022/07/14 01:12:59;;;;;;;6.20;3.08;;;;;;;15.18;100.00;100999.16;4905291;29;20480;-77
2022/07/14 01:15:26;;;;;;;7.05;3.38;;;;;;;15.09;100.00;101003.91;4949919;23;20091;31
2022/07/14 01:18:06;;;;;;;;;;;;;;;;;;;;;
2022/07/14 01:20:43;;;;;;;9.55;2.97;;;;;;;14.99;100.00;101007.81;4877924;29;20151;-77
2022/07/14 01:23:11;;;;;;;6.57;2.75;;;;;;;14.95;100.00;101008.81;4884554;29;20040;-77
2022/07/14 01:25:40;;;;;;;6.55;3.10;;;;;;;14.93;100.00;101012.41;4882088;29;20045;-77
2022/07/14 01:28:10;;;;;;;7.75;3.15;;;;;;;14.96;100.00;101011.41;4873787;29;20059;-77
2022/07/14 01:30:37;;;;;;;8.82;2.90;;;;;;;14.87;100.00;101017.91;4872955;29;20135;-77
2022/07/14 01:33:05;;;;;;;5.28;2.80;;;;;;;14.82;100.00;101014.56;4860181;29;20132;-77
2022/07/14 01:35:31;;;;;;;7.35;2.88;;;;;;;14.77;100.00;101015.59;4870640;29;20088;-77
2022/07/14 01:38:01;;;;;;;5.75;2.92;;;;;;;14.71;100.00;101021.97;4871286;29;20055;-77
2022/07/14 01:40:27;;;;;;;4.90;2.65;;;;;;;14.69;100.00;101009.66;4884239;29;20047;-77
2022/07/14 01:42:54;;;;;;;6.07;2.78;;;;;;;14.69;100.00;101015.84;4832472;29;20045;-77
2022/07/14 01:45:21;;;;;;;6.47;2.83;;;;;;;14.72;100.00;101020.22;4867733;29;20040;-77
2022/07/14 01:47:48;;;;;;;5.75;2.75;;;;;;;14.64;100.00;101018.66;4876372;29;20044;-77
2022/07/14 01:50:14;;;;;;;8.85;3.40;;;;;;;14.47;100.00;101017.47;4857902;29;20051;-78
2022/07/14 01:52:41;;;;;;;7.32;3.22;;;;;;;14.51;100.00;101017.31;4875888;29;20055;-77
2022/07/14 01:55:11;;;;;;;5.63;2.70;;;;;;;14.51;100.00;101014.63;4894646;29;20041;-77
2022/07/14 01:57:41;;;;;;;7.32;2.70;;;;;;;14.51;100.00;101019.97;4865362;29;20051;-77
2022/07/14 02:00:09;;;;;;;5.10;2.97;;;;;;;14.51;100.00;101019.97;4876411;29;20040;-77
2022/07/14 02:02:35;;;;;;;7.55;3.40;;;;;;;14.47;100.00;101022.78;4879687;29;20040;-77
2022/07/14 02:05:03;;;;;;;7.22;2.95;;;;;;;14.30;100.00;101031.22;4860124;29;20495;-76
2022/07/14 02:07:37;;;;;;;7.43;2.67;;;;;;;14.18;100.00;101034.22;4867404;29;20483;-76
2022/07/14 02:12:54;;;;;;;5.78;2.80;;;;;;;14.03;100.00;101049.69;4885431;29;20064;-77
2022/07/14 02:15:21;;;;;;;9.40;3.35;;;;;;;14.00;100.00;101049.78;4880821;29;20041;-76
2022/07/14 02:17:48;;;;;;;12.60;3.17;;;;;;;14.06;100.00;101038.13;4866264;29;20053;-77
2022/07/14 02:20:17;;;;;;;7.82;2.80;;;;;;;14.00;100.00;101044.47;4877999;29;20060;-77
2022/07/14 02:22:45;;;;;;;5.57;2.95;;;;;;;13.85;100.00;101052.88;4892379;29;20044;-77
2022/07/14 02:25:12;;;;;;;9.40;3.22;;;;;;;13.85;100.00;101060.84;4880887;29;20471;-77
2022/07/14 02:27:41;;;;;;;8.35;3.67;;;;;;;13.83;100.00;101054.72;4884655;29;20045;-77
2022/07/14 02:30:11;;;;;;;6.40;3.17;;;;;;;13.88;100.00;101050.16;4874776;29;20091;-77
2022/07/14 02:32:47;;;;;;;9.02;3.20;;;;;;;13.81;100.00;101045.91;4878651;29;20055;-77
2022/07/14 02:35:16;;;;;;;7.00;3.13;;;;;;;13.81;100.00;101059.19;4859923;29;20056;-76
2022/07/14 02:37:48;;;;;;;10.73;3.33;;;;;;;13.67;100.00;101048.06;4875223;29;20709;-78
2022/07/14 02:40:15;;;;;;;8.82;2.30;;;;;;;13.61;100.00;101049.09;4880145;29;20048;-77
2022/07/14 02:42:44;;;;;;;9.05;3.72;;;;;;;13.64;100.00;101050.81;4875173;29;20059;-77
2022/07/14 02:45:10;;;;;;;6.63;2.72;;;;;;;13.57;100.00;101054.53;4861617;29;20041;-78
2022/07/14 02:47:37;;;;;;;9.45;3.28;;;;;;;13.56;100.00;101064.28;4880992;29;20045;-78
2022/07/14 02:50:07;;;;;;;8.10;3.85;;;;;;;13.47;100.00;101052.13;4871952;29;20118;-77
2022/07/14 02:52:34;;;;;;;4.82;2.70;;;;;;;13.46;100.00;101057.50;4878301;29;20036;-77
2022/07/14 02:55:01;;;;;;;8.70;3.22;;;;;;;13.47;100.00;101057.44;4892435;29;20499;-78
2022/07/14 02:57:28;;;;;;;5.93;2.92;;;;;;;13.38;100.00;101063.00;4878276;29;20409;-77
2022/07/14 02:59:55;;;;;;;6.75;3.15;;;;;;;13.46;100.00;101061.00;4879489;29;20139;-79
2022/07/14 03:02:21;;;;;;;8.80;3.03;;;;;;;13.55;100.00;101072.31;4896974;29;20491;-77
2022/07/14 03:04:48;;;;;;;10.27;3.38;;;;;;;13.51;100.00;101082.97;4858847;29;20143;-78
2022/07/14 03:07:15;;;;;;;4.55;2.60;;;;;;;13.45;100.00;101087.56;4880828;29;20483;-78
2022/07/14 03:09:42;;;;;;;8.95;3.28;;;;;;;13.40;100.00;101074.44;4862427;29;21016;-77
2022/07/14 03:12:08;;;;;;;4.55;3.22;;;;;;;13.31;100.00;101081.75;4872579;29;20041;-77
2022/07/14 03:14:35;;;;;;;8.27;3.15;;;;;;;13.41;100.00;101083.25;4879979;29;20131;-79
2022/07/14 03:17:02;;;;;;;5.10;3.25;;;;;;;13.30;100.00;101078.22;4880098;29;20079;-77
2022/07/14 03:19:29;;;;;;;8.05;2.85;;;;;;;13.33;100.00;101079.94;4864115;29;20070;-77
2022/07/14 03:21:55;;;;;;;7.68;3.42;;;;;;;13.34;100.00;101074.56;4861297;29;20574;-79
2022/07/14 03:24:22;;;;;;;6.95;3.38;;;;;;;13.37;100.00;101063.00;4876219;29;20037;-78
2022/07/14 03:26:49;;;;;;;7.00;3.17;;;;;;;13.31;100.00;101066.69;4877291;29;20060;-77
2022/07/14 03:29:16;;;;;;;7.65;2.70;;;;;;;13.28;100.00;101066.75;4894351;29;20124;-77
2022/07/14 03:31:43;;;;;;;8.38;3.22;;;;;;;13.35;100.00;101056.88;4880197;29;20144;-77
2022/07/14 03:34:12;;;;;;;5.50;2.85;;;;;;;13.34;100.00;101061.31;4881716;29;20072;-77
2022/07/14 03:36:38;;;;;;;6.57;2.90;;;;;;;13.29;100.00;101063.22;4860733;29;20059;-77
2022/07/14 03:39:13;;;;;;;10.93;3.53;;;;;;;13.33;100.00;101056.91;4862523;29;20084;-75
2022/07/14 03:41:40;;;;;;;6.68;3.33;;;;;;;13.40;100.00;101065.59;4876896;29;20037;-75
2022/07/14 03:44:07;;;;;;;10.18;3.10;;;;;;;13.46;100.00;101063.66;4877521;29;20040;-77
2022/07/14 03:46:34;;;;;;;7.00;2.85;;;;;;;13.42;100.00;101067.28;4875754;29;20561;-77
2022/07/14 03:49:02;;;;;;;7.68;2.88;;;;;;;13.36;100.00;101072.75;4877799;29;20044;-77
2022/07/14 03:51:28;;;;;;;7.60;2.80;;;;;;;13.39;100.00;101077.13;4876611;29;20581;-78
2022/07/14 03:53:55;;;;;;;7.03;2.65;;;;;;;13.41;100.00;101077.94;4879025;29;20430;-78
2022/07/14 03:56:22;;;;;;;9.15;3.53;;;;;;;13.42;100.00;101085.00;4875506;29;20051;-76
2022/07/14 03:58:48;;;;;;;5.57;2.50;;;;;;;13.41;100.00;101078.81;4870515;29;20174;-79
2022/07/14 04:01:15;;;;;;;6.60;2.78;;;;;;;13.42;100.00;101085.88;4873990;29;20043;-77
2022/07/14 04:03:43;;;;;;;8.40;2.45;;;;;;;13.47;100.00;101086.63;4895330;29;20513;-78
2022/07/14 04:06:09;;;;;;;4.80;2.40;;;;;;;13.51;100.00;101082.97;4876535;29;20048;-78
2022/07/14 04:08:36;;;;;;;7.57;3.03;;;;;;;13.59;100.00;101081.91;4864209;29;20513;-76
2022/07/14 04:11:03;;;;;;;7.70;2.55;;;;;;;13.55;100.00;101085.56;4875584;29;20119;-77
2022/07/14 04:13:32;;;;;;;5.97;2.53;;;;;;;13.55;100.00;101082.91;4861583;29;20036;-77
2022/07/14 04:15:59;;;;;;;5.13;2.08;;;;;;;13.45;100.00;101083.16;4892446;29;20045;-75
2022/07/14 04:18:26;;;;;;;8.82;2.80;;;;;;;13.51;100.00;101080.31;4877306;29;20039;-77
2022/07/14 04:20:54;;;;;;;6.53;2.45;;;;;;;13.42;100.00;101080.56;4878874;29;20127;-79
2022/07/14 04:23:21;;;;;;;3.90;1.90;;;;;;;13.48;100.00;101082.19;4879513;29;20053;-77
2022/07/14 04:25:48;;;;;;;9.20;2.80;;;;;;;13.48;100.00;101087.50;4877307;29;20075;-77
2022/07/14 04:28:15;;;;;;;9.02;3.05;;;;;;;13.49;100.00;101074.19;4896950;29;20116;-77
2022/07/14 04:30:42;;;;;;;6.65;2.75;;;;;;;13.56;100.00;101089.97;4864578;29;20127;-78
2022/07/14 04:33:09;;;;;;;6.28;2.90;;;;;;;13.71;100.00;101094.88;4892865;29;20060;-78
2022/07/14 04:35:37;;;;;;;8.07;2.35;;;;;;;13.72;100.00;101083.34;4860063;29;20044;-77
2022/07/14 04:38:03;;;;;;;6.80;3.03;;;;;;;13.90;100.00;101082.84;4856727;29;20139;-78
2022/07/14 04:40:30;;;;;;;8.07;2.45;;;;;;;13.91;100.00;101086.38;4858966;29;20104;-77
2022/07/14 04:42:58;;;;;;;6.70;2.30;;;;;;;13.91;100.00;101095.22;4844572;29;20058;-77
2022/07/14 04:45:25;;;;;;;3.80;2.42;;;;;;;13.94;100.00;101089.81;4875885;29;20073;-78
2022/07/14 04:47:52;;;;;;;9.38;3.55;;;;;;;13.93;100.00;101095.16;4862930;29;20111;-77
2022/07/14 04:53:05;;;;;;;5.15;2.20;;;;;;;14.22;100.00;101105.88;4876270;29;20067;-79
2022/07/14 04:55:32;;;;;;;6.50;2.83;;;;;;;14.29;100.00;101098.56;4870779;29;20701;-76
2022/07/14 04:57:59;;;;;;;4.65;1.77;;;;;;;14.27;100.00;101109.25;4860582;29;20037;-78
2022/07/14 05:00:27;;;;;;;7.28;2.40;;;;;;;14.37;100.00;101113.38;4879573;29;20066;-78
2022/07/14 05:02:54;;;;;;;6.22;2.50;;;;;;;14.52;100.00;101105.91;4872385;29;20057;-77
2022/07/14 05:05:21;;;;;;;6.53;2.28;;;;;;;14.85;99.33;101101.34;4870307;29;20049;-77
2022/07/14 05:07:47;;;;;;;5.80;2.30;;;;;;;14.91;96.03;101111.81;4877240;29;20056;-77
2022/07/14 05:10:17;;;;;;;6.18;1.85;;;;;;;14.94;96.64;101109.03;4848676;29;20108;-77
2022/07/14 05:12:44;;;;;;;3.75;1.73;;;;;;;14.90;95.84;101096.78;4872762;29;20049;-78
2022/07/14 05:15:10;;;;;;;8.80;2.25;;;;;;;15.04;93.74;101102.50;4869281;29;20049;-79
2022/07/14 05:17:37;;;;;;;5.30;2.40;;;;;;;15.18;91.89;101110.94;4876256;29;20060;-77
2022/07/14 05:20:04;;;;;;;4.45;1.67;;;;;;;15.07;93.25;101112.22;4863138;29;20045;-78
2022/07/14 05:22:36;;;;;;;9.05;2.78;;;;;;;15.02;95.31;101109.69;4858603;29;20491;-78
2022/07/14 05:25:07;;;;;;;7.47;2.67;;;;;;;14.94;93.69;101125.00;4859333;29;20059;-78
2022/07/14 05:27:38;;;;;;;4.20;1.70;;;;;;;14.91;93.81;101126.00;4876637;29;20050;-78
2022/07/14 05:30:09;;;;;;;15.20;2.45;;;;;;;15.06;91.92;101116.66;4860254;29;20487;-78
2022/07/14 05:32:36;;;;;;;4.70;1.98;;;;;;;15.23;90.47;101123.25;4859396;29;20044;-78
2022/07/14 05:35:04;;;;;;;4.22;2.00;;;;;;;15.31;88.54;101126.53;4872367;29;20073;-78
2022/07/14 05:37:30;;;;;;;4.22;1.80;;;;;;;15.48;85.99;101126.84;4860491;29;20040;-77
2022/07/14 05:39:59;;;;;;;4.45;1.63;;;;;;;15.67;83.98;101124.44;4872829;29;20054;-77
2022/07/14 05:42:25;;;;;;;5.25;2.03;;;;;;;16.40;76.16;101118.31;4860226;29;20043;-79
2022/07/14 05:44:52;;;;;;;3.15;1.70;;;;;;;17.98;69.28;101117.22;4889122;29;20053;-78
2022/07/14 05:47:19;;;;;;;5.07;1.50;;;;;;;20.28;58.64;101108.78;4867019;29;20495;-79
2022/07/14 05:49:46;;;;;;;3.45;1.33;;;;;;;22.37;51.48;101113.66;4846572;29;20135;-78
2022/07/14 05:52:13;;;;;;;2.97;1.10;;;;;;;23.77;47.51;101116.22;4891498;29;20081;-77
2022/07/14 05:54:40;;;;;;;3.50;1.38;;;;;;;24.21;43.37;101123.06;4876776;29;20966;-78
2022/07/14 05:57:13;;;;;;;2.50;1.20;;;;;;;24.56;43.08;101112.53;4880016;29;20044;-78
2022/07/14 05:59:39;;;;;;;5.38;1.77;;;;;;;25.83;39.59;101108.50;4863339;29;20044;-77
2022/07/14 06:02:12;;;;;;;2.75;1.58;;;;;;;25.90;39.19;101121.47;4869922;29;20044;-79
2022/07/14 06:04:39;;;;;;;4.22;1.48;;;;;;;25.40;39.31;101125.28;4862932;29;20049;-78
2022/07/14 06:07:09;;;;;;;5.28;1.70;;;;;;;25.33;39.87;101119.47;4897911;29;20049;-78
2022/07/14 06:09:38;;;;;;;33.63;5.07;;;;;;;24.92;40.76;101122.50;4876549;29;20049;-78
2022/07/14 06:12:06;;;;;;;4.57;1.77;;;;;;;24.00;41.55;101120.06;4879956;29;20064;-77
2022/07/14 06:14:33;;;;;;;3.08;1.40;;;;;;;23.34;42.98;101123.63;4893904;29;20041;-78
2022/07/14 06:16:59;;;;;;;3.53;1.42;;;;;;;22.60;45.69;101130.19;4888763;29;20499;-77
2022/07/14 06:19:26;;;;;;;4.35;1.20;;;;;;;21.98;47.46;101143.00;4890380;29;20048;-79
2022/07/14 06:21:53;;;;;;;5.28;1.48;;;;;;;21.36;49.63;101140.38;4883770;29;20531;-78
2022/07/14 06:24:19;;;;;;;2.70;1.58;;;;;;;21.08;49.94;101141.03;4846244;29;20046;-78
2022/07/14 06:26:46;;;;;;;3.60;1.38;;;;;;;21.25;48.96;101134.69;4839003;29;20415;-77
2022/07/14 06:29:13;;;;;;;3.70;1.52;;;;;;;21.31;47.35;101135.25;4859743;29;20156;-79
2022/07/14 06:31:39;;;;;;;3.72;1.30;;;;;;;20.72;50.35;101142.13;4845577;29;20037;-78
2022/07/14 06:34:06;;;;;;;3.33;1.10;;;;;;;20.83;51.81;101132.63;4845211;29;20052;-79
2022/07/14 06:36:33;;;;;;;2.78;1.30;;;;;;;21.24;50.34;101141.88;4855668;29;20056;-78
2022/07/14 06:39:00;;;;;;;2.50;1.27;;;;;;;21.02;48.92;101136.88;4867324;29;20085;-78
2022/07/14 06:41:26;;;;;;;3.83;1.25;;;;;;;21.45;49.20;101141.66;4851927;29;20124;-77
2022/07/14 06:43:53;;;;;;;3.15;1.05;;;;;;;21.25;48.21;101137.38;4856551;29;20056;-77
2022/07/14 06:46:20;;;;;;;4.13;1.35;;;;;;;21.10;47.76;101141.81;4857900;29;20073;-77
2022/07/14 06:48:47;;;;;;;2.53;1.13;;;;;;;20.90;50.17;101142.06;4858334;29;20048;-77
2022/07/14 06:51:14;;;;;;;2.53;0.93;;;;;;;20.93;49.89;101136.50;4856914;29;20036;-77
2022/07/14 06:53:41;;;;;;;2.70;1.15;;;;;;;20.62;49.74;101137.38;4858985;29;20915;-78
2022/07/14 06:56:07;;;;;;;3.22;1.17;;;;;;;20.35;49.14;101140.56;4860196;29;20041;-76
2022/07/14 06:58:37;;;;;;;2.13;0.90;;;;;;;20.07;49.70;101133.09;4857207;29;20072;-77
2022/07/14 07:01:03;;;;;;;2.83;1.05;;;;;;;20.38;50.71;101135.03;4840626;29;20059;-77
2022/07/14 07:03:31;;;;;;;3.10;1.20;;;;;;;20.75;50.88;101127.66;4856715;29;20128;-78
2022/07/14 07:08:46;;;;;;;2.53;1.17;;;;;;;21.36;47.87;101116.19;4842902;29;20419;-77
2022/07/14 07:11:13;;;;;;;4.47;1.27;;;;;;;21.55;48.48;101121.34;4841817;29;20041;-76
2022/07/14 07:13:40;;;;;;;11.25;2.38;;;;;;;21.88;46.41;101111.25;4862423;29;20040;-77
2022/07/14 07:16:08;;;;;;;3.78;1.48;;;;;;;22.41;46.88;101111.63;4873502;29;20057;-76
2022/07/14 07:18:35;;;;;;;1.42;1.00;;;;;;;22.05;44.94;101101.31;4845035;29;20089;-77
2022/07/14 07:21:03;;;;;;;423.75;64.72;;;;;;;21.91;46.10;101096.75;4872385;29;20049;-76
2022/07/14 07:23:30;;;;;;;18.75;3.15;;;;;;;21.79;48.19;101106.44;4871420;29;20053;-76
2022/07/14 07:25:57;;;;;;;4.75;1.40;;;;;;;21.50;46.99;101101.91;4868089;29;20179;-78
2022/07/14 07:28:24;;;;;;;4.63;1.45;;;;;;;21.86;47.58;101091.66;4843663;29;20409;-77
2022/07/14 07:30:53;;;;;;;2.72;1.15;;;;;;;22.28;46.62;101094.50;4868797;29;20059;-76
2022/07/14 07:33:20;;;;;;;3.47;1.40;;;;;;;21.88;45.09;101087.06;4863532;29;20045;-78
2022/07/14 07:35:47;;;;;;;2.88;1.20;;;;;;;22.31;45.28;101094.34;5006829;23;20066;-79
2022/07/14 07:38:13;;;;;;;3.42;1.20;;;;;;;22.02;43.47;101090.72;4960135;28;20137;-79
2022/07/14 07:40:40;;;;;;;3.00;1.10;;;;;;;22.11;43.29;101088.38;4959382;28;20653;-79
2022/07/14 07:43:07;;;;;;;2.92;1.08;;;;;;;22.18;44.24;101091.53;4958282;28;20120;-79
2022/07/14 07:45:34;;;;;;;1.67;1.10;;;;;;;22.10;42.91;101089.31;4936472;28;20585;-79
2022/07/14 07:48:04;;;;;;;2.25;1.25;;;;;;;22.16;41.84;101082.69;4962857;28;20546;-78
2022/07/14 07:50:31;;;;;;;3.15;1.40;;;;;;;21.74;42.66;101080.78;4949399;28;20053;-78
2022/07/14 07:52:58;;;;;;;3.20;1.20;;;;;;;;;;4953903;28;20149;-78
2022/07/14 07:55:26;;;;;;;3.15;0.95;;;;;;;21.89;41.17;101079.84;4974100;28;20047;-78
2022/07/14 07:57:54;;;;;;;2.42;1.00;;;;;;;22.27;42.52;101076.63;4953733;28;20070;-78
2022/07/14 08:00:20;;;;;;;2.50;1.08;;;;;;;22.64;41.33;101078.75;4967254;28;20038;-79
2022/07/14 08:02:49;;;;;;;3.25;1.40;;;;;;;22.88;41.06;101073.63;4968033;28;20085;-80
2022/07/14 08:05:17;;;;;;;2.58;1.20;;;;;;;22.91;41.87;101064.47;4931794;28;20039;-78
2022/07/14 08:08:08;;;;;;;6.22;1.50;;;;;;;22.81;41.55;101076.78;4956103;28;20030;-79
2022/07/14 08:10:38;;;;;;;2.05;0.90;;;;;;;22.75;39.42;101069.97;4957079;28;20042;-79
2022/07/14 08:13:06;;;;;;;4.72;1.20;;;;;;;22.85;41.58;101064.88;4936810;28;20038;-80
2022/07/14 08:15:33;;;;;;;2.05;1.10;;;;;;;23.16;40.96;101069.97;4934840;28;20073;-78
2022/07/14 08:17:59;;;;;;;28.75;4.03;;;;;;;23.52;42.13;101066.63;4950399;28;20618;-78
2022/07/14 08:20:26;;;;;;;4.30;1.60;;;;;;;23.76;39.49;101071.34;4947684;28;20055;-79
2022/07/14 08:22:53;;;;;;;3.50;1.48;;;;;;;23.55;38.99;101057.47;4953747;28;20230;-79
2022/07/14 08:25:19;;;;;;;5.68;1.48;;;;;;;22.85;41.24;101060.34;4937897;28;20053;-79
2022/07/14 08:27:46;;;;;;;60.50;8.57;;;;;;;23.22;40.65;101055.22;4940271;28;20058;-79
2022/07/14 08:30:13;;;;;;;3.28;1.30;;;;;;;23.22;39.80;101048.00;4950230;28;20056;-78
2022/07/14 08:32:49;;;;;;;6.10;1.95;;;;;;;23.41;42.10;101053.00;4932541;28;20035;-79
2022/07/14 08:35:18;;;;;;;2.85;1.70;;;;;;;23.27;40.94;101063.84;4949631;28;20046;-79
2022/07/14 08:37:45;;;;;;;4.90;1.10;;;;;;;22.21;42.92;101053.69;4939466;28;20069;-80
2022/07/14 08:40:14;;;;;;;2.40;1.38;;;;;;;22.09;43.96;101055.28;4975898;28;20439;-79
2022/07/14 08:42:42;;;;;;;3.38;1.40;;;;;;;22.55;43.91;101049.72;4931837;28;20051;-79
2022/07/14 08:45:12;;;;;;;2.28;1.15;;;;;;;23.24;40.72;101047.91;4936909;28;20130;-79
2022/07/14 08:47:40;;;;;;;2.95;0.95;;;;;;;23.35;39.11;101037.25;4947377;28;20050;-79
2022/07/14 08:50:09;;;;;;;3.97;1.40;;;;;;;23.76;37.73;101041.66;4947116;28;20125;-79
2022/07/14 08:52:36;;;;;;;2.05;1.10;;;;;;;24.22;39.09;101036.59;4935749;28;20042;-79
2022/07/14 08:55:07;;;;;;;4.05;1.25;;;;;;;24.48;38.10;101042.84;4952512;28;20058;-79
2022/07/14 08:57:35;;;;;;;2.45;1.02;;;;;;;24.34;37.80;101038.44;4966727;28;20047;-79
2022/07/14 09:00:10;;;;;;;2.58;1.23;;;;;;;24.36;37.42;101028.38;4952469;28;20381;-79
2022/07/14 09:02:38;;;;;;;2.17;1.20;;;;;;;23.22;38.68;101028.28;4928433;28;20515;-80
2022/07/14 09:05:25;;;;;;;2.60;1.30;;;;;;;24.05;38.82;101036.94;4949608;28;20299;-79
2022/07/14 09:07:56;;;;;;;15.75;3.70;;;;;;;24.35;37.10;101025.78;4941502;28;20440;-79
2022/07/14 09:10:25;;;;;;;2.22;1.20;;;;;;;24.23;36.40;101034.75;4936793;28;20114;-79
2022/07/14 09:13:18;;;;;;;3.63;1.50;;;;;;;24.58;36.97;101024.13;4954851;28;20039;-80
2022/07/14 09:15:46;;;;;;;2.70;1.20;;;;;;;24.71;36.71;101017.69;4949623;28;20051;-79
2022/07/14 09:18:24;;;;;;;4.65;1.38;;;;;;;24.86;37.01;101022.94;4940636;28;20070;-79
2022/07/14 09:20:52;;;;;;;2.53;1.50;;;;;;;24.92;35.87;101011.69;4939994;28;20439;-80
2022/07/14 09:23:31;;;;;;;2.55;1.20;;;;;;;25.29;35.57;101028.72;4936781;28;20126;-79
2022/07/14 09:26:17;;;;;;;1.52;0.80;;;;;;;24.96;34.18;101021.28;4966268;28;20470;-80
2022/07/14 09:28:46;;;;;;;2.47;1.00;;;;;;;25.15;33.15;101024.38;4955484;28;20575;-79
2022/07/14 09:31:24;;;;;;;4.05;1.33;;;;;;;25.54;33.08;101017.72;4915102;28;20063;-79
2022/07/14 09:33:55;;;;;;;2.15;1.25;;;;;;;25.32;34.19;101016.81;4953629;28;20089;-79
2022/07/14 09:36:31;;;;;;;3.30;1.10;;;;;;;25.16;34.06;101014.41;4933026;28;20043;-80
2022/07/14 09:39:06;;;;;;;2.45;0.90;;;;;;;25.37;34.22;101004.63;4947107;28;20054;-79
2022/07/14 09:41:36;;;;;;;3.08;1.40;;;;;;;24.83;35.11;101009.66;4950305;28;20054;-78
2022/07/14 09:44:14;;;;;;;3.83;1.20;;;;;;;24.56;35.22;100994.53;4949762;28;20043;-78
2022/07/14 09:46:54;;;;;;;4.18;1.17;;;;;;;24.95;34.04;101000.63;4933287;28;20114;-78
2022/07/14 09:49:31;;;;;;;1.70;1.10;;;;;;;24.57;35.60;100992.69;4942551;28;20039;-78
2022/07/14 09:52:15;;;;;;;2.53;1.20;;;;;;;24.96;35.07;100984.28;4941730;28;20039;-78
2022/07/14 09:54:50;;;;;;;3.58;1.50;;;;;;;25.50;34.66;100982.94;4927360;28;20106;-78
2022/07/14 09:57:26;;;;;;;1.65;1.00;;;;;;;26.10;33.65;100976.38;4968205;28;20046;-78
2022/07/14 09:59:58;;;;;;;3.97;1.48;;;;;;;26.31;32.81;100971.06;4939577;28;20419;-78
2022/07/14 10:02:29;;;;;;;1.90;1.00;;;;;;;25.64;33.01;100984.53;4938607;28;20042;-78
2022/07/14 10:05:07;;;;;;;19.17;3.15;;;;;;;25.94;33.88;100984.88;4938647;28;20039;-77
2022/07/14 10:07:42;;;;;;;1.92;1.00;;;;;;;26.57;32.33;100980.66;4942339;28;20141;-77
2022/07/14 10:10:13;;;;;;;1.65;1.20;;;;;;;26.19;31.87;100975.63;4931572;28;20751;-78
2022/07/14 10:12:41;;;;;;;4.18;1.42;;;;;;;26.38;33.02;100978.59;4964182;28;20039;-77
2022/07/14 10:15:10;;;;;;;3.70;1.27;;;;;;;25.96;32.00;100982.88;4934823;28;20464;-78
2022/07/14 10:17:39;;;;;;;4.78;1.20;;;;;;;25.42;33.62;100983.53;4953677;28;20508;-77
2022/07/14 10:20:08;;;;;;;1.63;0.90;;;;;;;25.42;33.90;100971.84;4931541;28;20046;-78
2022/07/14 10:22:36;;;;;;;3.40;1.10;;;;;;;25.81;34.35;100966.03;4940634;28;20086;-78
2022/07/14 10:25:04;;;;;;;2.33;1.00;;;;;;;25.86;33.33;100964.81;4952314;28;20043;-77
2022/07/14 10:27:40;;;;;;;2.13;1.10;;;;;;;25.34;32.68;100971.56;4938381;28;20459;-78
2022/07/14 10:30:07;;;;;;;2.10;0.88;;;;;;;25.85;33.10;100973.91;4936779;28;20138;-78
2022/07/14 10:32:59;;;;;;;2.03;1.15;;;;;;;25.23;32.73;100973.28;4940151;28;20046;-79
2022/07/14 10:35:35;;;;;;;1.60;1.00;;;;;;;25.66;31.99;100967.22;4937386;28;20097;-77
2022/07/14 10:38:08;;;;;;;1.92;0.90;;;;;;;25.43;33.55;100973.56;4958267;28;20055;-78
2022/07/14 10:41:04;;;;;;;2.63;1.17;;;;;;;25.39;33.22;100958.53;4963480;28;20058;-77
2022/07/14 10:44:05;;;;;;;1.17;0.70;;;;;;;25.61;33.43;100961.28;4947106;28;20047;-78
2022/07/14 10:46:38;;;;;;;2.75;1.13;;;;;;;25.13;32.55;100953.31;4954105;28;20527;-77
2022/07/14 10:49:07;;;;;;;1.95;1.20;;;;;;;24.13;33.94;100959.84;4948923;28;20439;-77
2022/07/14 10:51:44;;;;;;;3.67;1.40;;;;;;;24.12;34.79;100963.47;4933822;28;20065;-78
2022/07/14 10:54:16;;;;;;;3.45;1.10;;;;;;;24.50;35.12;100956.31;4948688;28;20049;-77
2022/07/14 10:57:19;;;;;;;3.88;1.38;;;;;;;25.27;33.43;100953.09;4958325;28;20042;-77
2022/07/14 10:59:47;;;;;;;2.25;0.95;;;;;;;25.45;31.67;100950.81;4947852;28;20050;-79
2022/07/14 11:02:14;;;;;;;2.30;1.00;;;;;;;25.05;32.48;100944.06;4956199;28;20050;-80
2022/07/14 11:05:00;;;;;;;3.72;1.60;;;;;;;24.73;32.35;100941.94;4956994;28;20050;-78
2022/07/14 11:07:51;;;;;;;1.58;1.02;;;;;;;25.06;32.95;100949.38;4961538;28;20105;-78
2022/07/14 11:10:18;;;;;;;1.88;0.90;;;;;;;24.89;31.68;100941.66;4942690;28;20166;-78
2022/07/14 11:13:03;;;;;;;2.95;1.10;;;;;;;25.19;32.10;100938.47;4942650;28;20042;-76
2022/07/14 11:15:45;;;;;;;2.97;1.00;;;;;;;25.45;32.93;100934.59;4958792;28;20035;-78
2022/07/14 11:18:24;;;;;;;1.92;1.13;;;;;;;25.53;32.26;100921.31;4941395;28;20419;-78
2022/07/14 11:21:00;;;;;;;2.97;1.00;;;;;;;25.83;32.12;100916.34;4958533;28;20046;-78
2022/07/14 11:23:51;;;;;;;2.60;0.90;;;;;;;25.81;30.70;100919.13;4960916;28;20034;-78
2022/07/14 11:26:44;;;;;;;2.10;1.02;;;;;;;25.69;31.47;100907.44;4959871;28;20081;-77
2022/07/14 11:29:15;;;;;;;4.22;1.13;;;;;;;25.93;31.61;100909.19;4963151;28;20045;-78
2022/07/14 11:31:52;;;;;;;2.55;0.98;;;;;;;25.71;31.04;100901.91;4957466;28;20405;-77
2022/07/14 11:37:16;;;;;;;2.65;0.80;;;;;;;26.31;30.94;100912.31;4973615;28;20049;-78
2022/07/14 11:40:44;;;;;;;2.25;0.90;;;;;;;26.27;30.59;100907.28;4947567;28;20583;-78
2022/07/14 11:43:48;;;;;;;1.95;0.90;;;;;;;26.02;30.09;100895.75;4966684;28;20050;-78
2022/07/14 11:46:22;;;;;;;0.93;0.65;;;;;;;25.83;30.82;100889.28;4915338;28;20047;-78
2022/07/14 11:48:51;;;;;;;3.63;0.95;;;;;;;26.06;31.74;100894.53;4932570;28;20105;-78